createdAt,value
2023-04-22T00:02:17.258Z,55.60
2023-04-22T00:04:48.564Z,55.64
2023-04-22T00:07:20.047Z,55.73
2023-04-22T00:09:51.164Z,55.79
2023-04-22T00:12:22.029Z,55.78
2023-04-22T00:14:52.776Z,55.73
2023-04-22T00:17:23.625Z,55.66
2023-04-22T00:19:54.679Z,55.80
2023-04-22T00:22:27.940Z,55.82
2023-04-22T00:24:58.549Z,55.73
2023-04-22T00:27:29.314Z,55.90
2023-04-22T00:30:00.049Z,55.85
2023-04-22T00:32:30.958Z,55.86
2023-04-22T00:35:01.591Z,55.82
2023-04-22T00:37:32.347Z,55.93
2023-04-22T00:40:03.720Z,55.91
2023-04-22T00:42:34.636Z,55.86
2023-04-22T00:45:06.204Z,55.98
2023-04-22T00:47:37.567Z,56.04
2023-04-22T00:50:10.629Z,56.04
2023-04-22T00:52:41.630Z,55.97
2023-04-22T00:55:13.372Z,56.10
2023-04-22T00:57:45.507Z,56.21
2023-04-22T01:00:17.285Z,56.14
2023-04-22T01:02:48.384Z,56.19
2023-04-22T01:05:20.108Z,56.14
2023-04-22T01:07:51.460Z,56.17
2023-04-22T01:10:22.937Z,56.17
2023-04-22T01:12:53.620Z,56.38
2023-04-22T01:15:24.544Z,56.32
2023-04-22T01:17:56.111Z,56.41
2023-04-22T01:20:29.685Z,56.34
2023-04-22T01:23:04.248Z,56.33
2023-04-22T01:25:34.964Z,56.35
2023-04-22T01:28:05.988Z,56.20
2023-04-22T01:30:36.925Z,56.32
2023-04-22T01:33:07.982Z,56.42
2023-04-22T01:35:39.475Z,56.35
2023-04-22T01:38:12.382Z,56.26
2023-04-22T01:40:43.146Z,56.18
2023-04-22T01:43:14.081Z,56.37
2023-04-22T01:45:45.114Z,56.22
2023-04-22T01:48:16.217Z,56.23
2023-04-22T01:50:47.239Z,56.39
2023-04-22T01:53:17.950Z,56.39
2023-04-22T01:55:49.588Z,56.49
2023-04-22T01:58:20.225Z,56.62
2023-04-22T02:00:50.848Z,56.60
2023-04-22T02:03:21.613Z,56.49
2023-04-22T02:05:54.210Z,56.68
2023-04-22T02:08:24.936Z,56.62
2023-04-22T02:10:55.660Z,56.73
2023-04-22T02:13:26.588Z,56.79
2023-04-22T02:15:57.383Z,56.80
2023-04-22T02:18:28.207Z,56.68
2023-04-22T02:20:58.853Z,56.76
2023-04-22T02:23:30.366Z,56.71
2023-04-22T02:26:01.671Z,56.69
2023-04-22T02:28:32.475Z,56.75
2023-04-22T02:31:03.562Z,56.93
2023-04-22T02:33:34.212Z,56.80
2023-04-22T02:36:05.293Z,56.92
2023-04-22T02:38:35.992Z,56.75
2023-04-22T02:41:06.886Z,56.84
2023-04-22T02:43:37.537Z,56.82
2023-04-22T02:46:10.655Z,56.86
2023-04-22T02:48:41.441Z,56.84
2023-04-22T02:51:12.628Z,56.90
2023-04-22T02:53:43.751Z,56.84
2023-04-22T02:56:14.532Z,56.80
2023-04-22T02:58:45.246Z,56.92
2023-04-22T03:01:16.287Z,56.90
2023-04-22T03:03:47.432Z,56.91
2023-04-22T03:06:18.974Z,56.86
2023-04-22T03:08:50.036Z,57.05
2023-04-22T03:11:20.998Z,57.00
2023-04-22T03:13:52.114Z,56.97
2023-04-22T03:16:25.954Z,56.99
2023-04-22T03:18:55.124Z,57.12
2023-04-22T03:21:25.865Z,56.94
2023-04-22T03:23:56.535Z,57.05
2023-04-22T03:26:27.304Z,57.04
2023-04-22T03:28:58.074Z,57.08
2023-04-22T03:31:28.774Z,57.08
2023-04-22T03:33:59.655Z,57.15
2023-04-22T03:36:31.206Z,57.14
2023-04-22T03:39:01.852Z,57.19
2023-04-22T03:41:32.860Z,57.17
2023-04-22T03:44:03.449Z,57.23
2023-04-22T03:46:34.678Z,57.18
2023-04-22T03:49:06.133Z,57.26
2023-04-22T03:51:37.385Z,57.23
2023-04-22T03:54:08.531Z,57.18
2023-04-22T03:56:39.489Z,57.28
2023-04-22T03:59:10.507Z,57.33
2023-04-22T04:01:41.252Z,57.38
2023-04-22T04:04:12.106Z,57.33
2023-04-22T04:06:42.999Z,56.90
2023-04-22T04:09:13.689Z,56.61
2023-04-22T04:11:44.514Z,56.72
2023-04-22T04:14:15.648Z,56.57
2023-04-22T04:16:46.606Z,56.51
2023-04-22T04:19:17.960Z,56.17
2023-04-22T04:21:49.308Z,56.05
2023-04-22T04:24:20.307Z,55.81
2023-04-22T04:26:51.400Z,55.53
2023-04-22T04:29:23.952Z,55.49
2023-04-22T04:31:54.832Z,55.29
2023-04-22T04:34:25.773Z,55.11
2023-04-22T04:36:57.077Z,54.89
2023-04-22T04:39:29.385Z,54.91
2023-04-22T04:42:00.559Z,54.72
2023-04-22T04:44:32.387Z,54.52
2023-04-22T04:47:04.201Z,54.23
2023-04-22T04:49:39.948Z,54.12
2023-04-22T04:52:12.000Z,53.92
2023-04-22T04:54:42.822Z,53.80
2023-04-22T04:57:13.667Z,53.60
2023-04-22T04:59:44.282Z,53.44
2023-04-22T05:02:15.226Z,53.30
2023-04-22T05:04:46.913Z,53.10
2023-04-22T05:07:17.946Z,53.08
2023-04-22T05:09:48.766Z,52.98
2023-04-22T05:12:19.414Z,52.89
2023-04-22T05:14:50.260Z,52.91
2023-04-22T05:17:22.152Z,52.73
2023-04-22T05:19:53.106Z,52.66
2023-04-22T05:22:24.687Z,52.51
2023-04-22T05:24:55.357Z,52.44
2023-04-22T05:27:26.225Z,52.47
2023-04-22T05:29:57.333Z,52.24
2023-04-22T05:32:28.265Z,52.27
2023-04-22T05:34:58.927Z,52.22
2023-04-22T05:37:30.009Z,52.13
2023-04-22T05:40:00.713Z,52.08
2023-04-22T05:42:31.397Z,52.06
2023-04-22T05:45:02.187Z,52.15
2023-04-22T05:47:33.058Z,52.19
2023-04-22T05:50:03.914Z,52.13
2023-04-22T05:52:34.559Z,51.96
2023-04-22T05:55:06.165Z,52.12
2023-04-22T05:57:36.935Z,52.10
2023-04-22T06:00:09.786Z,52.10
2023-04-22T06:02:40.693Z,52.11
2023-04-22T06:05:12.651Z,52.07
2023-04-22T06:07:43.532Z,52.10
2023-04-22T06:10:14.458Z,52.17
2023-04-22T06:12:45.374Z,52.11
2023-04-22T06:15:16.405Z,52.13
2023-04-22T06:17:47.165Z,52.06
2023-04-22T06:20:17.950Z,52.09
2023-04-22T06:22:48.801Z,52.00
2023-04-22T06:25:19.978Z,51.42
2023-04-22T06:27:50.736Z,51.77
2023-04-22T06:30:21.719Z,51.70
2023-04-22T06:32:52.967Z,51.64
2023-04-22T06:35:24.128Z,51.61
2023-04-22T06:37:55.406Z,51.63
2023-04-22T06:40:26.357Z,51.57
2023-04-22T06:42:57.056Z,51.52
2023-04-22T06:45:28.226Z,51.39
2023-04-22T06:47:59.038Z,51.39
2023-04-22T06:50:30.721Z,51.39
2023-04-22T06:53:01.443Z,51.40
2023-04-22T06:55:32.305Z,51.35
2023-04-22T06:58:03.278Z,51.32
2023-04-22T07:00:34.258Z,51.31
2023-04-22T07:03:05.356Z,51.28
2023-04-22T07:05:39.135Z,51.30
2023-04-22T07:08:10.571Z,51.29
2023-04-22T07:10:41.613Z,51.26
2023-04-22T07:13:12.445Z,51.23
2023-04-22T07:15:43.393Z,51.26
2023-04-22T07:18:14.379Z,51.32
2023-04-22T07:20:45.488Z,51.28
2023-04-22T07:23:16.216Z,51.34
2023-04-22T07:25:47.215Z,51.32
2023-04-22T07:28:17.934Z,51.39
2023-04-22T07:30:48.886Z,51.40
2023-04-22T07:33:19.595Z,51.36
2023-04-22T07:35:50.752Z,51.27
2023-04-22T07:38:21.495Z,51.30
2023-04-22T07:40:52.354Z,51.25
2023-04-22T07:43:23.150Z,51.22
2023-04-22T07:45:54.015Z,51.37
2023-04-22T07:48:24.829Z,51.23
2023-04-22T07:50:55.873Z,51.20
2023-04-22T07:53:26.815Z,51.20
2023-04-22T07:55:59.802Z,51.07
2023-04-22T07:58:31.690Z,50.91
2023-04-22T08:01:02.591Z,50.92
2023-04-22T08:03:33.548Z,50.63
2023-04-22T08:06:04.659Z,49.88
2023-04-22T08:08:35.559Z,49.70
2023-04-22T08:11:06.996Z,49.54
2023-04-22T08:13:37.860Z,49.06
2023-04-22T08:16:09.436Z,49.32
2023-04-22T08:18:40.690Z,49.37
2023-04-22T08:21:12.527Z,49.28
2023-04-22T08:23:43.280Z,49.20
2023-04-22T08:26:15.428Z,49.11
2023-04-22T08:28:46.391Z,49.01
2023-04-22T08:31:17.317Z,48.91
2023-04-22T08:33:48.705Z,48.72
2023-04-22T08:36:22.849Z,48.75
2023-04-22T08:38:54.767Z,48.59
2023-04-22T08:41:27.182Z,48.51
2023-04-22T08:43:58.953Z,48.50
2023-04-22T08:46:32.107Z,48.64
2023-04-22T08:49:04.203Z,48.15
2023-04-22T08:51:35.093Z,47.93
2023-04-22T08:54:06.365Z,47.80
2023-04-22T08:56:38.229Z,47.83
2023-04-22T08:59:10.709Z,47.47
2023-04-22T09:01:42.563Z,46.12
2023-04-22T09:04:15.836Z,45.97
2023-04-22T09:06:46.560Z,45.64
2023-04-22T09:09:17.433Z,45.60
2023-04-22T09:11:48.267Z,45.36
2023-04-22T09:14:20.322Z,45.41
2023-04-22T09:16:51.386Z,44.85
2023-04-22T09:19:26.644Z,44.58
2023-04-22T09:22:00.545Z,44.82
2023-04-22T09:24:30.747Z,44.88
2023-04-22T09:27:04.662Z,44.74
2023-04-22T09:29:35.873Z,44.54
2023-04-22T09:32:13.201Z,44.53
2023-04-22T09:34:51.888Z,44.59
2023-04-22T09:37:29.022Z,44.62
2023-04-22T09:40:07.793Z,44.66
2023-04-22T09:42:51.168Z,44.49
2023-04-22T09:45:33.240Z,44.60
2023-04-22T09:48:08.723Z,44.61
2023-04-22T09:50:40.647Z,44.58
2023-04-22T09:53:12.863Z,44.38
2023-04-22T09:55:46.018Z,44.58
2023-04-22T09:58:18.633Z,44.52
2023-04-22T10:00:51.589Z,44.40
2023-04-22T10:03:22.733Z,44.47
2023-04-22T10:05:53.694Z,44.66
2023-04-22T10:08:25.080Z,44.85
2023-04-22T10:10:56.994Z,44.94
2023-04-22T10:13:28.771Z,45.02
2023-04-22T10:16:01.838Z,45.12
2023-04-22T10:18:33.383Z,45.18
2023-04-22T10:21:04.615Z,44.98
2023-04-22T10:23:36.438Z,44.58
2023-04-22T10:26:08.008Z,44.49
2023-04-22T10:28:45.600Z,44.73
2023-04-22T10:31:24.683Z,44.67
2023-04-22T10:34:13.352Z,44.72
2023-04-22T10:37:08.356Z,44.81
2023-04-22T10:39:40.368Z,44.85
2023-04-22T10:42:15.446Z,45.16
2023-04-22T10:44:51.812Z,45.15
2023-04-22T10:47:30.662Z,45.32
2023-04-22T10:50:22.495Z,45.48
2023-04-22T10:52:57.188Z,45.69
2023-04-22T10:55:48.985Z,45.59
2023-04-22T10:58:25.740Z,45.70
2023-04-22T11:01:00.293Z,45.84
2023-04-22T11:03:32.411Z,45.76
2023-04-22T11:06:22.516Z,45.96
2023-04-22T11:09:09.185Z,45.80
2023-04-22T11:11:40.748Z,45.81
2023-04-22T11:14:12.336Z,45.76
2023-04-22T11:16:49.334Z,45.85
2023-04-22T11:19:20.502Z,45.87
2023-04-22T11:21:51.907Z,45.87
2023-04-22T11:24:22.945Z,45.96
2023-04-22T11:26:56.965Z,46.00
2023-04-22T11:29:28.051Z,46.09
2023-04-22T11:32:00.201Z,46.03
2023-04-22T11:34:32.315Z,46.11
2023-04-22T11:37:03.413Z,46.17
2023-04-22T11:39:50.244Z,46.06
2023-04-22T11:42:30.310Z,46.03
2023-04-22T11:45:01.178Z,46.04
2023-04-22T11:47:34.699Z,45.87
2023-04-22T11:50:10.099Z,45.93
2023-04-22T11:52:52.334Z,45.78
2023-04-22T11:55:27.388Z,45.87
2023-04-22T11:58:03.692Z,45.75
2023-04-22T12:00:37.318Z,46.10
2023-04-22T12:03:15.348Z,45.86
2023-04-22T12:05:47.977Z,45.81
2023-04-22T12:08:20.955Z,45.79
2023-04-22T12:10:57.753Z,45.69
2023-04-22T12:13:30.489Z,45.50
2023-04-22T12:16:02.689Z,45.68
2023-04-22T12:18:34.761Z,45.37
2023-04-22T12:21:11.284Z,45.48
2023-04-22T12:23:46.894Z,45.33
2023-04-22T12:26:18.967Z,45.31
2023-04-22T12:28:50.108Z,45.45
2023-04-22T12:31:21.421Z,45.18
2023-04-22T12:33:52.464Z,45.11
2023-04-22T12:36:23.867Z,45.12
2023-04-22T12:38:54.900Z,45.14
2023-04-22T12:41:25.861Z,45.01
2023-04-22T12:43:56.998Z,45.08
2023-04-22T12:46:27.956Z,44.88
2023-04-22T12:48:59.189Z,44.90
2023-04-22T12:51:31.070Z,44.91
2023-04-22T12:54:01.871Z,44.75
2023-04-22T12:56:32.834Z,44.58
2023-04-22T12:59:03.778Z,44.67
2023-04-22T13:01:35.982Z,44.61
2023-04-22T13:04:07.433Z,44.56
2023-04-22T13:06:38.746Z,44.42
2023-04-22T13:09:09.702Z,44.36
2023-04-22T13:11:40.730Z,44.29
2023-04-22T13:14:11.985Z,44.29
2023-04-22T13:16:42.906Z,44.27
2023-04-22T13:19:15.462Z,44.11
2023-04-22T13:21:46.452Z,44.18
2023-04-22T13:24:17.382Z,44.34
2023-04-22T13:26:48.228Z,44.36
2023-04-22T13:29:19.283Z,44.32
2023-04-22T13:31:50.224Z,44.29
2023-04-22T13:34:21.067Z,44.46
2023-04-22T13:36:52.211Z,44.32
2023-04-22T13:39:23.666Z,44.48
2023-04-22T13:41:54.687Z,44.44
2023-04-22T13:44:26.127Z,44.61
2023-04-22T13:46:57.532Z,44.56
2023-04-22T13:49:28.457Z,44.73
2023-04-22T13:52:00.427Z,44.34
2023-04-22T13:54:31.686Z,44.40
2023-04-22T13:57:03.261Z,44.47
2023-04-22T13:59:38.112Z,44.32
2023-04-22T14:02:09.438Z,44.48
2023-04-22T14:04:41.179Z,44.61
2023-04-22T14:07:15.658Z,44.09
2023-04-22T14:09:46.751Z,44.03
2023-04-22T14:12:18.194Z,43.84
2023-04-22T14:14:49.416Z,43.74
2023-04-22T14:17:22.150Z,43.66
2023-04-22T14:19:54.305Z,43.48
2023-04-22T14:22:25.446Z,43.78
2023-04-22T14:24:56.856Z,43.72
2023-04-22T14:27:28.722Z,43.73
2023-04-22T14:29:59.711Z,43.91
2023-04-22T14:32:30.428Z,43.82
2023-04-22T14:35:01.811Z,43.98
2023-04-22T14:37:33.096Z,44.00
2023-04-22T14:40:05.029Z,43.86
2023-04-22T14:42:36.581Z,43.98
2023-04-22T14:45:09.046Z,44.09
2023-04-22T14:47:40.062Z,43.91
2023-04-22T14:50:12.044Z,44.03
2023-04-22T14:52:43.037Z,43.83
2023-04-22T14:55:22.731Z,43.97
2023-04-22T14:57:57.764Z,43.86
2023-04-22T15:00:27.503Z,43.68
2023-04-22T15:03:01.664Z,43.84
2023-04-22T15:05:32.886Z,43.76
2023-04-22T15:08:03.742Z,43.69
2023-04-22T15:10:34.676Z,43.82
2023-04-22T15:13:05.930Z,43.62
2023-04-22T15:15:36.951Z,43.68
2023-04-22T15:18:08.052Z,43.90
2023-04-22T15:20:39.279Z,43.78
2023-04-22T15:23:10.290Z,44.01
2023-04-22T15:25:41.225Z,43.92
2023-04-22T15:28:12.377Z,43.86
2023-04-22T15:30:43.941Z,43.93
2023-04-22T15:33:14.816Z,43.86
2023-04-22T15:35:47.742Z,43.92
2023-04-22T15:38:19.122Z,43.79
2023-04-22T15:40:50.125Z,43.79
2023-04-22T15:43:21.184Z,43.77
2023-04-22T15:45:52.282Z,44.07
2023-04-22T15:48:23.571Z,43.94
2023-04-22T15:50:54.915Z,43.58
2023-04-22T15:53:26.013Z,43.68
2023-04-22T15:55:58.170Z,43.44
2023-04-22T15:58:30.579Z,43.40
2023-04-22T16:01:15.357Z,43.38
2023-04-22T16:03:47.965Z,43.46
2023-04-22T16:06:19.951Z,43.35
2023-04-22T16:08:50.794Z,43.36
2023-04-22T16:11:21.941Z,43.31
2023-04-22T16:13:52.903Z,43.18
2023-04-22T16:16:25.258Z,43.02
2023-04-22T16:18:56.414Z,43.13
2023-04-22T16:21:28.902Z,43.22
2023-04-22T16:24:00.963Z,43.14
2023-04-22T16:26:31.894Z,43.03
2023-04-22T16:29:03.213Z,43.03
2023-04-22T16:31:35.081Z,43.24
2023-04-22T16:34:06.227Z,43.45
2023-04-22T16:36:37.163Z,43.41
2023-04-22T16:39:08.260Z,43.53
2023-04-22T16:41:39.271Z,43.40
2023-04-22T16:44:10.439Z,43.48
2023-04-22T16:46:41.553Z,43.58
2023-04-22T16:49:13.608Z,43.62
2023-04-22T16:51:44.498Z,43.82
2023-04-22T16:54:15.468Z,43.80
2023-04-22T16:56:47.173Z,43.76
2023-04-22T16:59:18.042Z,43.47
2023-04-22T17:01:48.895Z,43.74
2023-04-22T17:04:20.040Z,43.54
2023-04-22T17:06:51.084Z,43.80
2023-04-22T17:09:21.844Z,43.78
2023-04-22T17:11:52.974Z,43.71
2023-04-22T17:14:23.877Z,43.71
2023-04-22T17:16:55.117Z,43.70
2023-04-22T17:19:26.310Z,43.70
2023-04-22T17:21:57.620Z,43.62
2023-04-22T17:24:28.978Z,43.64
2023-04-22T17:26:59.931Z,43.60
2023-04-22T17:29:31.176Z,43.85
2023-04-22T17:32:02.390Z,43.73
2023-04-22T17:34:33.563Z,43.71
2023-04-22T17:37:04.522Z,43.77
2023-04-22T17:39:36.027Z,43.72
2023-04-22T17:42:07.352Z,43.73
2023-04-22T17:44:38.789Z,43.86
2023-04-22T17:47:10.117Z,43.60
2023-04-22T17:49:42.112Z,43.73
2023-04-22T17:52:13.420Z,43.76
2023-04-22T17:54:44.841Z,43.85
2023-04-22T17:57:16.355Z,43.88
2023-04-22T17:59:47.328Z,43.85
2023-04-22T18:02:22.161Z,44.11
2023-04-22T18:04:53.217Z,43.94
2023-04-22T18:07:24.246Z,44.22
2023-04-22T18:09:55.452Z,44.27
2023-04-22T18:12:30.679Z,44.17
2023-04-22T18:15:02.659Z,44.25
2023-04-22T18:17:33.978Z,44.14
2023-04-22T18:20:17.467Z,44.44
2023-04-22T18:22:52.170Z,44.35
2023-04-22T18:25:24.389Z,44.38
2023-04-22T18:27:57.092Z,44.23
2023-04-22T18:30:30.338Z,44.12
2023-04-22T18:33:02.043Z,44.27
2023-04-22T18:35:34.087Z,44.57
2023-04-22T18:38:05.399Z,44.50
2023-04-22T18:40:37.916Z,44.83
2023-04-22T18:43:09.082Z,44.57
2023-04-22T18:45:41.920Z,45.13
2023-04-22T18:48:13.451Z,45.21
2023-04-22T18:50:44.995Z,45.35
2023-04-22T18:53:16.349Z,45.56
2023-04-22T18:55:47.641Z,45.38
2023-04-22T18:58:20.787Z,45.91
2023-04-22T19:00:53.026Z,46.00
2023-04-22T19:03:25.658Z,46.05
2023-04-22T19:05:56.937Z,46.11
2023-04-22T19:08:28.093Z,45.90
2023-04-22T19:10:59.383Z,46.36
2023-04-22T19:13:30.752Z,46.41
2023-04-22T19:16:02.378Z,46.42
2023-04-22T19:18:33.446Z,46.37
2023-04-22T19:21:05.249Z,46.59
2023-04-22T19:23:36.590Z,46.76
2023-04-22T19:26:10.192Z,46.61
2023-04-22T19:28:47.182Z,46.83
2023-04-22T19:31:18.970Z,46.81
2023-04-22T19:33:50.904Z,46.86
2023-04-22T19:36:22.469Z,47.23
2023-04-22T19:38:53.726Z,47.36
2023-04-22T19:41:25.340Z,47.21
2023-04-22T19:43:59.085Z,47.25
2023-04-22T19:46:28.258Z,47.26
2023-04-22T19:49:00.304Z,47.25
2023-04-22T19:51:32.114Z,47.31
2023-04-22T19:54:05.214Z,47.45
2023-04-22T19:56:37.678Z,47.49
2023-04-22T19:59:09.248Z,47.62
2023-04-22T20:01:42.630Z,47.67
2023-04-22T20:04:15.240Z,47.64
2023-04-22T20:06:47.504Z,47.66
2023-04-22T20:09:19.623Z,47.66
2023-04-22T20:11:51.240Z,47.93
2023-04-22T20:14:23.315Z,48.02
2023-04-22T20:16:55.802Z,47.98
2023-04-22T20:19:28.428Z,47.99
2023-04-22T20:22:01.317Z,47.91
2023-04-22T20:24:38.979Z,48.04
2023-04-22T20:27:10.879Z,48.18
2023-04-22T20:29:43.579Z,47.93
2023-04-22T20:32:15.205Z,47.93
2023-04-22T20:34:47.081Z,48.02
2023-04-22T20:37:21.108Z,48.22
2023-04-22T20:39:53.309Z,48.33
2023-04-22T20:42:25.618Z,48.08
2023-04-22T20:44:56.545Z,48.12
2023-04-22T20:47:27.657Z,48.40
2023-04-22T20:49:58.648Z,48.53
2023-04-22T20:52:29.816Z,48.53
2023-04-22T20:55:01.064Z,48.26
2023-04-22T20:57:32.086Z,48.49
2023-04-22T21:00:02.923Z,48.46
2023-04-22T21:02:34.419Z,48.45
2023-04-22T21:05:06.840Z,48.55
2023-04-22T21:07:41.461Z,48.33
2023-04-22T21:10:14.270Z,48.57
2023-04-22T21:12:46.269Z,48.62
2023-04-22T21:15:18.570Z,48.59
2023-04-22T21:17:56.612Z,48.56
2023-04-22T21:20:30.875Z,48.71
2023-04-22T21:23:03.003Z,48.73
2023-04-22T21:25:35.829Z,48.71
2023-04-22T21:28:07.839Z,48.93
2023-04-22T21:30:40.148Z,48.83
2023-04-22T21:33:11.156Z,48.76
2023-04-22T21:35:42.536Z,48.83
2023-04-22T21:38:13.559Z,48.98
2023-04-22T21:40:44.841Z,49.19
2023-04-22T21:43:15.864Z,49.07
2023-04-22T21:45:46.696Z,49.11
2023-04-22T21:48:17.753Z,48.98
2023-04-22T21:50:48.687Z,49.10
2023-04-22T21:53:20.796Z,49.18
2023-04-22T21:55:51.902Z,49.36
2023-04-22T21:58:22.902Z,49.20
2023-04-22T22:00:54.094Z,49.29
2023-04-22T22:03:25.458Z,49.35
2023-04-22T22:05:56.608Z,49.50
2023-04-22T22:08:27.754Z,49.59
2023-04-22T22:10:59.578Z,49.53
2023-04-22T22:13:30.651Z,49.43
2023-04-22T22:16:02.157Z,49.71
2023-04-22T22:18:33.202Z,49.52
2023-04-22T22:21:04.223Z,49.46
2023-04-22T22:23:35.207Z,49.90
2023-04-22T22:26:08.236Z,49.63
2023-04-22T22:28:39.185Z,49.89
2023-04-22T22:31:09.966Z,49.65
2023-04-22T22:33:40.864Z,49.91
2023-04-22T22:36:12.390Z,49.80
2023-04-22T22:38:43.277Z,49.93
2023-04-22T22:41:14.277Z,49.98
2023-04-22T22:43:45.055Z,49.98
2023-04-22T22:46:16.223Z,50.23
2023-04-22T22:48:47.047Z,50.01
2023-04-22T22:51:18.731Z,49.96
2023-04-22T22:53:49.449Z,50.10
2023-04-22T22:56:21.051Z,50.07
2023-04-22T22:58:52.532Z,50.20
2023-04-22T23:01:23.724Z,50.06
2023-04-22T23:03:54.864Z,50.20
2023-04-22T23:06:27.232Z,50.17
2023-04-22T23:08:58.261Z,50.23
2023-04-22T23:11:29.065Z,50.31
2023-04-22T23:13:59.748Z,50.48
2023-04-22T23:16:30.472Z,50.18
2023-04-22T23:19:01.564Z,50.44
2023-04-22T23:21:33.261Z,50.33
2023-04-22T23:24:05.659Z,50.35
2023-04-22T23:26:37.424Z,50.41
2023-04-22T23:29:09.082Z,50.48
2023-04-22T23:31:42.806Z,50.46
2023-04-22T23:34:11.960Z,50.39
2023-04-22T23:36:43.813Z,50.39
2023-04-22T23:39:14.797Z,50.55
2023-04-22T23:41:45.403Z,50.58
2023-04-22T23:44:16.532Z,50.56
2023-04-22T23:46:48.066Z,50.60
2023-04-22T23:49:18.969Z,50.69
2023-04-22T23:51:50.113Z,50.67
2023-04-22T23:54:21.293Z,50.74
2023-04-22T23:56:53.453Z,50.65
2023-04-22T23:59:25.053Z,50.88
